Crimson Duke — WDB9874 — position and weather

sailwx.info

Track history (hours):
 
Tides and Currents Weather Stations Pressure Air Temp Water Temp Dewpoint Dewpoint Depression Visibility Wind Speed Wind Dir Waves Ship Positions

Crimson Duke

Owner: American River Transportation Company, St Louis, MO. More information available from US FCC via Universal Licensing System and Coast Guard Vessel Documentation Center.

Last reported at 2018-Feb-07 02:05 UTC. Time now 2018-Feb-22 03:11 UTC.
Position N 38°36' W 090°12'.
Warning: this ship's position is 15 days out of date.

Length 56 m; draft 3.5 m.

Type: Tow > 200 m length. MMSI: 366984310.

Date/timePositionNaut miles runAvg speedWind from/ knotsBaromVisibWave heightAir tempDewpointWater temp
2018-Feb-07 02:05N 38°36' W 090°12'0 0.3
2018-Feb-07 01:58N 38°36' W 090°12'1 1.8
2018-Feb-07 01:30N 38°35' W 090°12'3 0.2
2018-Feb-06 11:46N 38°33' W 090°15'2 4.5
2018-Feb-06 11:25N 38°32' W 090°16'  
2018-Jan-30 13:27N 32°48' W 091°09'4 2.6
2018-Jan-30 12:03N 32°45' W 091°09'1 3.5
2018-Jan-30 11:55N 32°44' W 091°09'4 1.1
2018-Jan-30 07:54N 32°40' W 091°08'2 3.3
2018-Jan-30 07:16N 32°38' W 091°09'1 3.1
2018-Jan-30 07:00N 32°38' W 091°09'2 3.6
2018-Jan-30 06:30N 32°36' W 091°08'2 3.9
2018-Jan-30 06:01N 32°35' W 091°07'2 3.7
2018-Jan-30 05:24N 32°33' W 091°06'2 4.2
2018-Jan-30 05:00N 32°31' W 091°06'2 4.4
2018-Jan-30 04:30N 32°29' W 091°07'2 4.3
2018-Jan-30 04:00N 32°27' W 091°05'2 4.3
2018-Jan-30 03:30N 32°26' W 091°03'2 4.2
2018-Jan-30 03:00N 32°26' W 091°01'2 3.7
2018-Jan-30 02:30N 32°24' W 090°59'2 3.6
2018-Jan-30 02:00N 32°22' W 091°00'2 3.6
2018-Jan-30 01:31N 32°21' W 090°59'2 4.6
2018-Jan-30 01:00N 32°21' W 090°56'2 3.9
2018-Jan-30 00:30N 32°20' W 090°54'2 3.7
2018-Jan-30 00:00N 32°18' W 090°55'0 0.5
2018-Jan-29 23:30N 32°18' W 090°55'0 0.0
2018-Jan-29 23:00N 32°18' W 090°55'0 0.0
2018-Jan-29 22:30N 32°18' W 090°55'0 0.0
2018-Jan-29 22:01N 32°18' W 090°55'0 0.2
2018-Jan-29 21:30N 32°18' W 090°55'2 4.0
2018-Jan-29 21:00N 32°17' W 090°57'2 3.9
2018-Jan-29 20:30N 32°15' W 090°59'2 3.5
2018-Jan-29 20:00N 32°13' W 090°59'2 4.0
2018-Jan-29 19:30N 32°11' W 090°60'3 3.8
2018-Jan-29 18:45N 32°09' W 091°00'1 3.5
2018-Jan-29 18:30N 32°08' W 091°01'2 3.7
2018-Jan-29 18:00N 32°07' W 091°03'3 4.3
2018-Jan-29 17:25N 32°08' W 091°06'2 3.4
2018-Jan-29 16:57N 32°07' W 091°06'4 4.2
2018-Jan-29 16:02N 32°04' W 091°03'0 3.4
2018-Jan-29 15:59N 32°03' W 091°03'2 4.5
2018-Jan-29 15:30N 32°01' W 091°04'3 4.4
2018-Jan-29 14:48N 31°59' W 091°07'15 3.7
2018-Jan-29 10:43N 31°50' W 091°21'  
Track history (hours):
 
Tides and Currents Weather Stations Pressure Air Temp Water Temp Dewpoint Dewpoint Depression Visibility Wind Speed Wind Dir Waves Ship Positions

Crimson Duke

Owner: American River Transportation Company, St Louis, MO. More information available from US FCC via Universal Licensing System and Coast Guard Vessel Documentation Center.

Last reported at 2018-Feb-07 02:05 UTC. Time now 2018-Feb-22 03:11 UTC.
Position N 38°36' W 090°12'.
Warning: this ship's position is 15 days out of date.

Length 56 m; draft 3.5 m.

Type: Tow > 200 m length. MMSI: 366984310.

Date/timePositionNaut miles runAvg speedWind from/ knotsBaromVisibWave heightAir tempDewpointWater temp
2018-Feb-07 02:05N 38°36' W 090°12'0 0.3
2018-Feb-07 01:58N 38°36' W 090°12'1 1.8
2018-Feb-07 01:30N 38°35' W 090°12'3 0.2
2018-Feb-06 11:46N 38°33' W 090°15'2 4.5
2018-Feb-06 11:25N 38°32' W 090°16'  
2018-Jan-30 13:27N 32°48' W 091°09'4 2.6
2018-Jan-30 12:03N 32°45' W 091°09'1 3.5
2018-Jan-30 11:55N 32°44' W 091°09'4 1.1
2018-Jan-30 07:54N 32°40' W 091°08'2 3.3
2018-Jan-30 07:16N 32°38' W 091°09'1 3.1
2018-Jan-30 07:00N 32°38' W 091°09'2 3.6
2018-Jan-30 06:30N 32°36' W 091°08'2 3.9
2018-Jan-30 06:01N 32°35' W 091°07'2 3.7
2018-Jan-30 05:24N 32°33' W 091°06'2 4.2
2018-Jan-30 05:00N 32°31' W 091°06'2 4.4
2018-Jan-30 04:30N 32°29' W 091°07'2 4.3
2018-Jan-30 04:00N 32°27' W 091°05'2 4.3
2018-Jan-30 03:30N 32°26' W 091°03'2 4.2
2018-Jan-30 03:00N 32°26' W 091°01'2 3.7
2018-Jan-30 02:30N 32°24' W 090°59'2 3.6
2018-Jan-30 02:00N 32°22' W 091°00'2 3.6
2018-Jan-30 01:31N 32°21' W 090°59'2 4.6
2018-Jan-30 01:00N 32°21' W 090°56'2 3.9
2018-Jan-30 00:30N 32°20' W 090°54'2 3.7
2018-Jan-30 00:00N 32°18' W 090°55'0 0.5
2018-Jan-29 23:30N 32°18' W 090°55'0 0.0
2018-Jan-29 23:00N 32°18' W 090°55'0 0.0
2018-Jan-29 22:30N 32°18' W 090°55'0 0.0
2018-Jan-29 22:01N 32°18' W 090°55'0 0.2
2018-Jan-29 21:30N 32°18' W 090°55'2 4.0
2018-Jan-29 21:00N 32°17' W 090°57'2 3.9
2018-Jan-29 20:30N 32°15' W 090°59'2 3.5
2018-Jan-29 20:00N 32°13' W 090°59'2 4.0
2018-Jan-29 19:30N 32°11' W 090°60'3 3.8
2018-Jan-29 18:45N 32°09' W 091°00'1 3.5
2018-Jan-29 18:30N 32°08' W 091°01'2 3.7
2018-Jan-29 18:00N 32°07' W 091°03'3 4.3
2018-Jan-29 17:25N 32°08' W 091°06'2 3.4
2018-Jan-29 16:57N 32°07' W 091°06'4 4.2
2018-Jan-29 16:02N 32°04' W 091°03'0 3.4
2018-Jan-29 15:59N 32°03' W 091°03'2 4.5
2018-Jan-29 15:30N 32°01' W 091°04'3 4.4
2018-Jan-29 14:48N 31°59' W 091°07'15 3.7
2018-Jan-29 10:43N 31°50' W 091°21'  

Dump ship's entire track history